sensor_id;sensor_type;location;lat;lon;timestamp;P1;P2;P0
56360;PMS7003;42611;51.132;13.588;2024-02-04T00:09:01;3.2;3.0;
56360;PMS7003;42611;51.132;13.588;2024-02-04T00:19:01;3.4;3.2;
56360;PMS7003;42611;51.132;13.588;2024-02-04T00:24:01;3.2;3.0;
56360;PMS7003;42611;51.132;13.588;2024-02-04T00:29:01;3.1;3.0;
56360;PMS7003;42611;51.132;13.588;2024-02-04T00:34:02;3.4;3.3;
56360;PMS7003;42611;51.132;13.588;2024-02-04T00:39:01;3.6;3.5;
56360;PMS7003;42611;51.132;13.588;2024-02-04T00:44:01;3.8;3.6;
56360;PMS7003;42611;51.132;13.588;2024-02-04T00:54:01;3.3;3.2;
56360;PMS7003;42611;51.132;13.588;2024-02-04T00:59:01;3.0;2.6;
56360;PMS7003;42611;51.132;13.588;2024-02-04T01:09:01;2.9;2.6;
56360;PMS7003;42611;51.132;13.588;2024-02-04T01:14:01;3.1;2.8;
56360;PMS7003;42611;51.132;13.588;2024-02-04T01:19:01;3.8;3.6;
56360;PMS7003;42611;51.132;13.588;2024-02-04T01:34:02;3.9;3.7;
56360;PMS7003;42611;51.132;13.588;2024-02-04T01:39:01;3.3;3.1;
56360;PMS7003;42611;51.132;13.588;2024-02-04T01:44:01;2.9;2.7;
56360;PMS7003;42611;51.132;13.588;2024-02-04T01:49:02;2.6;2.4;
56360;PMS7003;42611;51.132;13.588;2024-02-04T01:54:02;2.1;1.9;
56360;PMS7003;42611;51.132;13.588;2024-02-04T01:59:02;1.9;1.9;
56360;PMS7003;42611;51.132;13.588;2024-02-04T02:04:01;1.8;1.8;
56360;PMS7003;42611;51.132;13.588;2024-02-04T02:09:01;1.6;1.6;
56360;PMS7003;42611;51.132;13.588;2024-02-04T02:14:01;1.4;1.4;
56360;PMS7003;42611;51.132;13.588;2024-02-04T02:19:05;1.5;1.5;
56360;PMS7003;42611;51.132;13.588;2024-02-04T02:24:03;2.0;2.0;
56360;PMS7003;42611;51.132;13.588;2024-02-04T02:29:01;2.2;2.2;
56360;PMS7003;42611;51.132;13.588;2024-02-04T02:34:01;2.8;2.8;
56360;PMS7003;42611;51.132;13.588;2024-02-04T02:39:08;3.8;3.5;
56360;PMS7003;42611;51.132;13.588;2024-02-04T02:44:01;4.5;4.3;
56360;PMS7003;42611;51.132;13.588;2024-02-04T02:49:02;4.7;4.4;
56360;PMS7003;42611;51.132;13.588;2024-02-04T02:54:01;5.9;5.6;
56360;PMS7003;42611;51.132;13.588;2024-02-04T02:59:01;6.4;6.1;
56360;PMS7003;42611;51.132;13.588;2024-02-04T03:04:01;5.7;5.6;
56360;PMS7003;42611;51.132;13.588;2024-02-04T03:14:01;5.9;5.6;
56360;PMS7003;42611;51.132;13.588;2024-02-04T03:19:04;5.4;5.0;
56360;PMS7003;42611;51.132;13.588;2024-02-04T03:24:01;5.5;4.9;
56360;PMS7003;42611;51.132;13.588;2024-02-04T03:29:01;6.3;5.7;
56360;PMS7003;42611;51.132;13.588;2024-02-04T03:34:02;6.4;5.7;
56360;PMS7003;42611;51.132;13.588;2024-02-04T03:39:01;5.6;5.2;
56360;PMS7003;42611;51.132;13.588;2024-02-04T03:44:01;5.2;4.7;
56360;PMS7003;42611;51.132;13.588;2024-02-04T03:49:01;4.9;4.4;
56360;PMS7003;42611;51.132;13.588;2024-02-04T03:54:01;4.1;3.6;
56360;PMS7003;42611;51.132;13.588;2024-02-04T03:59:01;3.1;2.7;
56360;PMS7003;42611;51.132;13.588;2024-02-04T04:04:01;3.4;3.1;
56360;PMS7003;42611;51.132;13.588;2024-02-04T04:14:01;3.7;3.5;
56360;PMS7003;42611;51.132;13.588;2024-02-04T04:19:06;4.0;3.8;
56360;PMS7003;42611;51.132;13.588;2024-02-04T04:24:01;5.0;4.8;
56360;PMS7003;42611;51.132;13.588;2024-02-04T04:29:01;5.8;5.5;
56360;PMS7003;42611;51.132;13.588;2024-02-04T04:34:02;6.4;6.1;
56360;PMS7003;42611;51.132;13.588;2024-02-04T04:39:01;6.0;5.8;
56360;PMS7003;42611;51.132;13.588;2024-02-04T04:44:01;6.3;6.0;
56360;PMS7003;42611;51.132;13.588;2024-02-04T04:49:01;5.8;5.2;
56360;PMS7003;42611;51.132;13.588;2024-02-04T04:54:01;4.7;4.1;
56360;PMS7003;42611;51.132;13.588;2024-02-04T04:59:01;4.6;3.7;
56360;PMS7003;42611;51.132;13.588;2024-02-04T05:04:02;4.1;3.2;
56360;PMS7003;42611;51.132;13.588;2024-02-04T05:09:01;3.5;2.6;
56360;PMS7003;42611;51.132;13.588;2024-02-04T05:14:01;3.4;2.8;
56360;PMS7003;42611;51.132;13.588;2024-02-04T05:19:02;4.3;3.3;
56360;PMS7003;42611;51.132;13.588;2024-02-04T05:24:01;3.6;3.0;
56360;PMS7003;42611;51.132;13.588;2024-02-04T05:34:04;3.4;3.0;
56360;PMS7003;42611;51.132;13.588;2024-02-04T05:39:10;3.1;2.8;
56360;PMS7003;42611;51.132;13.588;2024-02-04T05:44:01;2.0;2.0;
56360;PMS7003;42611;51.132;13.588;2024-02-04T05:49:02;2.2;2.2;
56360;PMS7003;42611;51.132;13.588;2024-02-04T05:54:01;3.4;2.6;
56360;PMS7003;42611;51.132;13.588;2024-02-04T05:59:01;3.8;3.0;
56360;PMS7003;42611;51.132;13.588;2024-02-04T06:04:02;4.6;3.7;
56360;PMS7003;42611;51.132;13.588;2024-02-04T06:09:01;5.1;4.1;
56360;PMS7003;42611;51.132;13.588;2024-02-04T06:14:01;5.0;4.0;
56360;PMS7003;42611;51.132;13.588;2024-02-04T06:19:02;3.8;3.6;
56360;PMS7003;42611;51.132;13.588;2024-02-04T06:24:01;3.7;3.5;
56360;PMS7003;42611;51.132;13.588;2024-02-04T06:29:01;3.1;3.1;
56360;PMS7003;42611;51.132;13.588;2024-02-04T06:34:02;2.8;2.8;
56360;PMS7003;42611;51.132;13.588;2024-02-04T06:39:01;2.9;2.9;
56360;PMS7003;42611;51.132;13.588;2024-02-04T06:49:01;3.0;3.0;
56360;PMS7003;42611;51.132;13.588;2024-02-04T06:54:01;2.6;2.6;
56360;PMS7003;42611;51.132;13.588;2024-02-04T06:59:01;2.7;2.7;
56360;PMS7003;42611;51.132;13.588;2024-02-04T07:04:02;3.1;2.7;
56360;PMS7003;42611;51.132;13.588;2024-02-04T07:09:01;2.9;2.5;
56360;PMS7003;42611;51.132;13.588;2024-02-04T07:14:02;2.4;2.0;
56360;PMS7003;42611;51.132;13.588;2024-02-04T07:24:01;3.2;2.7;
56360;PMS7003;42611;51.132;13.588;2024-02-04T07:29:01;2.7;2.7;
56360;PMS7003;42611;51.132;13.588;2024-02-04T07:39:01;2.8;2.6;
56360;PMS7003;42611;51.132;13.588;2024-02-04T07:44:01;2.5;2.3;
56360;PMS7003;42611;51.132;13.588;2024-02-04T07:49:01;1.4;1.2;
56360;PMS7003;42611;51.132;13.588;2024-02-04T07:54:01;1.0;0.7;
56360;PMS7003;42611;51.132;13.588;2024-02-04T08:04:02;0.5;0.4;
56360;PMS7003;42611;51.132;13.588;2024-02-04T08:19:03;0.2;0.2;
56360;PMS7003;42611;51.132;13.588;2024-02-04T08:59:01;0.3;0.2;
56360;PMS7003;42611;51.132;13.588;2024-02-04T09:14:01;0.3;0.2;
56360;PMS7003;42611;51.132;13.588;2024-02-04T09:24:01;0.2;0.0;
56360;PMS7003;42611;51.132;13.588;2024-02-04T09:29:01;0.3;0.0;
56360;PMS7003;42611;51.132;13.588;2024-02-04T09:44:01;0.5;0.2;
56360;PMS7003;42611;51.132;13.588;2024-02-04T09:54:03;0.4;0.2;
56360;PMS7003;42611;51.132;13.588;2024-02-04T10:09:02;0.2;0.0;
56360;PMS7003;42611;51.132;13.588;2024-02-04T10:19:01;0.5;0.1;
56360;PMS7003;42611;51.132;13.588;2024-02-04T10:34:02;0.5;0.1;
56360;PMS7003;42611;51.132;13.588;2024-02-04T10:39:01;0.9;0.5;
56360;PMS7003;42611;51.132;13.588;2024-02-04T10:44:02;0.8;0.8;
56360;PMS7003;42611;51.132;13.588;2024-02-04T10:49:03;1.2;1.2;
56360;PMS7003;42611;51.132;13.588;2024-02-04T10:54:01;1.4;1.4;
56360;PMS7003;42611;51.132;13.588;2024-02-04T10:59:01;1.8;1.8;
56360;PMS7003;42611;51.132;13.588;2024-02-04T11:04:02;2.1;1.6;
56360;PMS7003;42611;51.132;13.588;2024-02-04T11:09:01;2.4;2.0;
56360;PMS7003;42611;51.132;13.588;2024-02-04T11:19:07;3.3;2.6;
56360;PMS7003;42611;51.132;13.588;2024-02-04T11:24:53;3.2;2.4;
56360;PMS7003;42611;51.132;13.588;2024-02-04T11:29:01;3.0;2.6;
56360;PMS7003;42611;51.132;13.588;2024-02-04T11:34:02;2.4;2.1;
56360;PMS7003;42611;51.132;13.588;2024-02-04T11:39:01;2.2;1.9;
56360;PMS7003;42611;51.132;13.588;2024-02-04T11:44:07;1.3;1.3;
56360;PMS7003;42611;51.132;13.588;2024-02-04T11:49:02;1.0;1.0;
56360;PMS7003;42611;51.132;13.588;2024-02-04T11:55:02;0.9;0.6;
56360;PMS7003;42611;51.132;13.588;2024-02-04T12:00:03;0.9;0.6;
56360;PMS7003;42611;51.132;13.588;2024-02-04T12:05:02;1.1;0.8;
56360;PMS7003;42611;51.132;13.588;2024-02-04T12:10:03;1.2;0.8;
56360;PMS7003;42611;51.132;13.588;2024-02-04T12:15:02;1.6;1.2;
56360;PMS7003;42611;51.132;13.588;2024-02-04T12:20:02;2.0;1.8;
56360;PMS7003;42611;51.132;13.588;2024-02-04T12:25:01;2.4;1.9;
56360;PMS7003;42611;51.132;13.588;2024-02-04T12:30:02;2.6;2.0;
56360;PMS7003;42611;51.132;13.588;2024-02-04T12:35:01;3.1;2.6;
56360;PMS7003;42611;51.132;13.588;2024-02-04T12:45:01;3.1;2.8;
56360;PMS7003;42611;51.132;13.588;2024-02-04T12:55:01;3.0;3.0;
56360;PMS7003;42611;51.132;13.588;2024-02-04T13:00:05;2.8;2.8;
56360;PMS7003;42611;51.132;13.588;2024-02-04T13:06:01;2.9;2.9;
56360;PMS7003;42611;51.132;13.588;2024-02-04T13:11:01;2.7;2.7;
56360;PMS7003;42611;51.132;13.588;2024-02-04T13:16:01;2.5;2.5;
56360;PMS7003;42611;51.132;13.588;2024-02-04T13:21:01;2.7;2.7;
56360;PMS7003;42611;51.132;13.588;2024-02-04T13:26:02;2.2;2.2;
56360;PMS7003;42611;51.132;13.588;2024-02-04T13:31:02;2.4;2.2;
56360;PMS7003;42611;51.132;13.588;2024-02-04T13:36:02;2.0;1.8;
56360;PMS7003;42611;51.132;13.588;2024-02-04T13:41:02;2.1;2.0;
56360;PMS7003;42611;51.132;13.588;2024-02-04T13:46:01;2.2;2.0;
56360;PMS7003;42611;51.132;13.588;2024-02-04T13:51:01;2.9;2.4;
56360;PMS7003;42611;51.132;13.588;2024-02-04T13:56:01;2.6;2.2;
56360;PMS7003;42611;51.132;13.588;2024-02-04T14:01:02;2.9;2.4;
56360;PMS7003;42611;51.132;13.588;2024-02-04T14:06:01;2.8;2.3;
56360;PMS7003;42611;51.132;13.588;2024-02-04T14:11:02;2.6;2.1;
56360;PMS7003;42611;51.132;13.588;2024-02-04T14:16:02;2.2;2.1;
56360;PMS7003;42611;51.132;13.588;2024-02-04T14:21:01;2.4;2.0;
56360;PMS7003;42611;51.132;13.588;2024-02-04T14:26:01;2.0;1.8;
56360;PMS7003;42611;51.132;13.588;2024-02-04T14:31:01;2.1;1.8;
56360;PMS7003;42611;51.132;13.588;2024-02-04T14:36:01;2.0;1.7;
56360;PMS7003;42611;51.132;13.588;2024-02-04T14:41:01;1.8;1.5;
56360;PMS7003;42611;51.132;13.588;2024-02-04T14:46:01;1.7;1.5;
56360;PMS7003;42611;51.132;13.588;2024-02-04T14:51:01;1.9;1.8;
56360;PMS7003;42611;51.132;13.588;2024-02-04T14:56:01;1.6;1.6;
56360;PMS7003;42611;51.132;13.588;2024-02-04T15:01:02;1.8;1.4;
56360;PMS7003;42611;51.132;13.588;2024-02-04T15:06:01;1.9;1.5;
56360;PMS7003;42611;51.132;13.588;2024-02-04T15:16:01;1.7;0.9;
56360;PMS7003;42611;51.132;13.588;2024-02-04T15:21:01;1.8;1.0;
56360;PMS7003;42611;51.132;13.588;2024-02-04T15:26:01;1.5;1.1;
56360;PMS7003;42611;51.132;13.588;2024-02-04T15:31:01;1.8;1.2;
56360;PMS7003;42611;51.132;13.588;2024-02-04T15:36:02;1.6;1.4;
56360;PMS7003;42611;51.132;13.588;2024-02-04T15:46:02;1.7;1.3;
56360;PMS7003;42611;51.132;13.588;2024-02-04T15:51:02;1.8;1.4;
56360;PMS7003;42611;51.132;13.588;2024-02-04T15:56:03;1.5;1.2;
56360;PMS7003;42611;51.132;13.588;2024-02-04T16:01:10;1.7;1.2;
56360;PMS7003;42611;51.132;13.588;2024-02-04T16:11:04;1.6;1.3;
56360;PMS7003;42611;51.132;13.588;2024-02-04T16:16:02;1.8;1.4;
56360;PMS7003;42611;51.132;13.588;2024-02-04T16:21:01;2.1;1.8;
56360;PMS7003;42611;51.132;13.588;2024-02-04T16:26:01;2.0;1.9;
56360;PMS7003;42611;51.132;13.588;2024-02-04T16:31:01;2.3;2.2;
56360;PMS7003;42611;51.132;13.588;2024-02-04T16:36:01;2.5;2.4;
56360;PMS7003;42611;51.132;13.588;2024-02-04T16:41:09;2.1;2.1;
56360;PMS7003;42611;51.132;13.588;2024-02-04T16:46:02;1.9;1.9;
56360;PMS7003;42611;51.132;13.588;2024-02-04T16:51:01;2.0;2.0;
56360;PMS7003;42611;51.132;13.588;2024-02-04T16:56:01;2.4;2.1;
56360;PMS7003;42611;51.132;13.588;2024-02-04T17:01:03;3.2;3.0;
56360;PMS7003;42611;51.132;13.588;2024-02-04T17:06:02;4.0;3.6;
56360;PMS7003;42611;51.132;13.588;2024-02-04T17:11:01;5.0;4.2;
56360;PMS7003;42611;51.132;13.588;2024-02-04T17:16:04;5.7;4.9;
56360;PMS7003;42611;51.132;13.588;2024-02-04T17:21:01;5.5;4.9;
56360;PMS7003;42611;51.132;13.588;2024-02-04T17:26:01;4.7;4.1;
56360;PMS7003;42611;51.132;13.588;2024-02-04T17:31:01;4.6;4.2;
56360;PMS7003;42611;51.132;13.588;2024-02-04T17:36:01;3.9;3.9;
56360;PMS7003;42611;51.132;13.588;2024-02-04T17:41:01;3.5;3.5;
56360;PMS7003;42611;51.132;13.588;2024-02-04T17:51:18;3.8;3.8;
56360;PMS7003;42611;51.132;13.588;2024-02-04T17:56:01;3.6;3.6;
56360;PMS7003;42611;51.132;13.588;2024-02-04T18:01:01;4.3;4.2;
56360;PMS7003;42611;51.132;13.588;2024-02-04T18:06:01;4.6;4.4;
56360;PMS7003;42611;51.132;13.588;2024-02-04T18:11:02;5.8;5.3;
56360;PMS7003;42611;51.132;13.588;2024-02-04T18:16:04;6.3;5.5;
56360;PMS7003;42611;51.132;13.588;2024-02-04T18:21:01;7.7;6.3;
56360;PMS7003;42611;51.132;13.588;2024-02-04T18:26:01;7.9;6.4;
56360;PMS7003;42611;51.132;13.588;2024-02-04T18:36:01;7.3;6.2;
56360;PMS7003;42611;51.132;13.588;2024-02-04T18:41:01;7.1;5.9;
56360;PMS7003;42611;51.132;13.588;2024-02-04T18:46:01;5.4;4.8;
56360;PMS7003;42611;51.132;13.588;2024-02-04T18:51:01;4.9;4.5;
56360;PMS7003;42611;51.132;13.588;2024-02-04T18:56:05;5.8;5.0;
56360;PMS7003;42611;51.132;13.588;2024-02-04T19:01:01;7.0;6.2;
56360;PMS7003;42611;51.132;13.588;2024-02-04T19:06:01;7.9;7.4;
56360;PMS7003;42611;51.132;13.588;2024-02-04T19:11:01;10.8;9.4;
56360;PMS7003;42611;51.132;13.588;2024-02-04T19:16:02;12.1;10.6;
56360;PMS7003;42611;51.132;13.588;2024-02-04T19:21:01;12.8;11.2;
56360;PMS7003;42611;51.132;13.588;2024-02-04T19:31:01;12.7;10.9;
56360;PMS7003;42611;51.132;13.588;2024-02-04T19:36:01;10.3;9.4;
56360;PMS7003;42611;51.132;13.588;2024-02-04T19:41:01;9.1;8.2;
56360;PMS7003;42611;51.132;13.588;2024-02-04T19:46:01;7.3;6.9;
56360;PMS7003;42611;51.132;13.588;2024-02-04T19:51:01;5.0;4.6;
56360;PMS7003;42611;51.132;13.588;2024-02-04T19:56:01;3.5;3.5;
56360;PMS7003;42611;51.132;13.588;2024-02-04T20:01:01;3.6;3.2;
56360;PMS7003;42611;51.132;13.588;2024-02-04T20:06:01;3.2;2.8;
56360;PMS7003;42611;51.132;13.588;2024-02-04T20:16:01;3.8;3.4;
56360;PMS7003;42611;51.132;13.588;2024-02-04T20:21:01;4.2;3.8;
56360;PMS7003;42611;51.132;13.588;2024-02-04T20:26:01;3.8;3.8;
56360;PMS7003;42611;51.132;13.588;2024-02-04T20:31:01;4.0;4.0;
56360;PMS7003;42611;51.132;13.588;2024-02-04T20:41:01;4.2;4.1;
56360;PMS7003;42611;51.132;13.588;2024-02-04T20:46:03;4.0;4.0;
56360;PMS7003;42611;51.132;13.588;2024-02-04T20:51:01;4.5;4.4;
56360;PMS7003;42611;51.132;13.588;2024-02-04T20:56:01;4.7;4.6;
56360;PMS7003;42611;51.132;13.588;2024-02-04T21:01:07;5.3;5.0;
56360;PMS7003;42611;51.132;13.588;2024-02-04T21:07:01;5.7;4.9;
56360;PMS7003;42611;51.132;13.588;2024-02-04T21:12:05;6.0;4.9;
56360;PMS7003;42611;51.132;13.588;2024-02-04T21:17:01;5.9;4.9;
56360;PMS7003;42611;51.132;13.588;2024-02-04T21:22:02;5.8;4.8;
56360;PMS7003;42611;51.132;13.588;2024-02-04T21:27:01;5.6;4.5;
56360;PMS7003;42611;51.132;13.588;2024-02-04T21:32:04;5.3;4.5;
56360;PMS7003;42611;51.132;13.588;2024-02-04T21:37:03;4.8;4.2;
56360;PMS7003;42611;51.132;13.588;2024-02-04T21:42:02;4.5;3.8;
56360;PMS7003;42611;51.132;13.588;2024-02-04T21:47:02;4.7;4.0;
56360;PMS7003;42611;51.132;13.588;2024-02-04T21:52:02;4.1;3.7;
56360;PMS7003;42611;51.132;13.588;2024-02-04T21:57:01;3.0;2.8;
56360;PMS7003;42611;51.132;13.588;2024-02-04T22:02:02;2.5;2.4;
56360;PMS7003;42611;51.132;13.588;2024-02-04T22:07:03;2.0;1.8;
56360;PMS7003;42611;51.132;13.588;2024-02-04T22:12:01;1.5;1.0;
56360;PMS7003;42611;51.132;13.588;2024-02-04T22:17:01;1.1;0.5;
56360;PMS7003;42611;51.132;13.588;2024-02-04T22:22:02;1.0;0.4;
56360;PMS7003;42611;51.132;13.588;2024-02-04T22:27:03;1.2;0.5;
56360;PMS7003;42611;51.132;13.588;2024-02-04T22:32:12;1.0;0.5;
56360;PMS7003;42611;51.132;13.588;2024-02-04T22:37:01;0.4;0.1;
56360;PMS7003;42611;51.132;13.588;2024-02-04T22:42:01;0.6;0.1;
56360;PMS7003;42611;51.132;13.588;2024-02-04T22:52:02;0.4;0.0;
